< < Back
Terminal Aerodrome Forecast


Current Version              Previous Versions:   1  2  3  4  5  6  7  8  9  

Terminal Aerodrome Forecast

648
FTUS42 KCAE 230200 AAC
TAFCAE
TAF AMD
KCAE 230230Z 2303/2324 10007KT P6SM VCSH SCT040 BKN150
     FM230700 VRB03KT 5SM BR SCT120 BKN250
      TEMPO 2310/2314 2SM BR BKN010
     FM231600 VRB05KT P6SM SCT025 BKN120=

Latest METAR

538
SAUS80 KWBC 231000 RRA
MTRCAE
METAR KCAE 230955Z 00000KT 3/4SM BR VV002 24/23 A3006 RMK AO2 SLP177
T02440228 RVRNO


USA.gov is the U.S. government's official web portal to all federal, state and local government web resources and services.